KLM765 EHAM-TNCB
Flight info
| Callsign | KLM765 |
|---|---|
| Flight time | N/A |
| Altitude | 36000 |
| Route | BERGI L60 PENIL M144 BAGSO DCT GMN DCT INKUR DCT MALOT/M083F340 DCT 52N020W 49N030W 45N040W 41N045W/M083F360 36N050W 32N055W DCT SIFEN DCT OPAUL/N0480F380 L327 SCAPA SCAPA1N |
| Aircraft | B77W/H-SDE1E2E3FGHIJ2J3J4J5M1RWXY/LB1D1 |
Departure
| Time | N/A |
|---|---|
| Airport | Amsterdam Airport Schiphol (EHAM) |
Arrival
| Time | 2026-04-19 08:42 |
|---|---|
| Airport | Flamingo International Airport (TNCB) |
| Time | Latitude | Longitude | Altitude | Speed | Heading |
|---|---|---|---|---|---|
| 2026-04-19 07:51 | 16.76421 | -66.95474 | 35969 ft | 435 kts | 213° |
| 2026-04-19 07:52 | 16.71175 | -66.98565 | 35967 ft | 437 kts | 213° |
| 2026-04-19 07:52 | 16.65967 | -67.01631 | 35969 ft | 437 kts | 213° |
| 2026-04-19 07:53 | 16.60662 | -67.04753 | 35968 ft | 438 kts | 213° |
| 2026-04-19 07:53 | 16.55351 | -67.07876 | 35967 ft | 438 kts | 213° |
| 2026-04-19 07:54 | 16.50047 | -67.10993 | 35966 ft | 438 kts | 213° |
| 2026-04-19 07:54 | 16.47353 | -67.12577 | 35803 ft | 439 kts | 212° |
| 2026-04-19 07:54 | 16.44745 | -67.14104 | 35933 ft | 424 kts | 213° |
| 2026-04-19 07:55 | 16.39574 | -67.17140 | 35967 ft | 432 kts | 213° |
| 2026-04-19 07:55 | 16.34278 | -67.20252 | 35967 ft | 439 kts | 213° |
| 2026-04-19 07:56 | 16.28957 | -67.23371 | 35966 ft | 440 kts | 213° |
| 2026-04-19 07:56 | 16.23617 | -67.26498 | 35951 ft | 440 kts | 213° |
| 2026-04-19 07:57 | 16.18277 | -67.29624 | 35964 ft | 440 kts | 213° |
| 2026-04-19 07:57 | 16.12939 | -67.32747 | 35967 ft | 440 kts | 213° |
| 2026-04-19 07:58 | 16.07584 | -67.35877 | 35951 ft | 438 kts | 213° |
| 2026-04-19 07:58 | 16.02289 | -67.38973 | 35948 ft | 436 kts | 213° |
| 2026-04-19 07:59 | 15.96984 | -67.42071 | 35954 ft | 434 kts | 213° |
| 2026-04-19 07:59 | 15.91762 | -67.45120 | 35949 ft | 433 kts | 213° |
| 2026-04-19 08:00 | 15.86512 | -67.48184 | 35954 ft | 433 kts | 213° |
| 2026-04-19 08:00 | 15.81906 | -67.50637 | 35930 ft | 437 kts | 204° |
| 2026-04-19 08:01 | 15.76081 | -67.52507 | 35948 ft | 439 kts | 200° |
| 2026-04-19 08:01 | 15.70194 | -67.54231 | 35956 ft | 440 kts | 201° |
| 2026-04-19 08:02 | 15.64311 | -67.56010 | 35954 ft | 441 kts | 201° |
| 2026-04-19 08:02 | 15.58422 | -67.57839 | 35956 ft | 442 kts | 201° |
| 2026-04-19 08:03 | 15.52526 | -67.59688 | 35957 ft | 443 kts | 201° |
| 2026-04-19 08:03 | 15.46618 | -67.61543 | 35942 ft | 443 kts | 201° |
| 2026-04-19 08:04 | 15.40713 | -67.63393 | 35950 ft | 443 kts | 201° |
| 2026-04-19 08:04 | 15.34819 | -67.65239 | 35949 ft | 442 kts | 201° |
| 2026-04-19 08:05 | 15.28934 | -67.67080 | 35953 ft | 442 kts | 201° |
| 2026-04-19 08:05 | 15.23056 | -67.68918 | 35946 ft | 441 kts | 201° |
| 2026-04-19 08:06 | 15.17181 | -67.70754 | 35926 ft | 441 kts | 201° |
| 2026-04-19 08:06 | 15.11317 | -67.72586 | 35938 ft | 440 kts | 201° |
| 2026-04-19 08:07 | 15.05457 | -67.74415 | 35943 ft | 440 kts | 201° |
| 2026-04-19 08:07 | 14.99600 | -67.76242 | 35943 ft | 440 kts | 201° |
| 2026-04-19 08:08 | 14.93738 | -67.78070 | 35944 ft | 440 kts | 201° |
| 2026-04-19 08:08 | 14.87874 | -67.79898 | 35942 ft | 440 kts | 201° |
| 2026-04-19 08:09 | 14.82008 | -67.81724 | 35935 ft | 440 kts | 201° |
| 2026-04-19 08:09 | 14.76140 | -67.83551 | 35931 ft | 440 kts | 201° |
| 2026-04-19 08:10 | 14.70276 | -67.85375 | 35928 ft | 440 kts | 201° |
| 2026-04-19 08:10 | 14.64409 | -67.87199 | 35942 ft | 440 kts | 201° |
| 2026-04-19 08:11 | 14.58539 | -67.89023 | 35944 ft | 440 kts | 201° |
| 2026-04-19 08:11 | 14.52670 | -67.90846 | 35930 ft | 440 kts | 201° |
| 2026-04-19 08:12 | 14.46772 | -67.92677 | 35935 ft | 440 kts | 201° |
| 2026-04-19 08:12 | 14.40909 | -67.94495 | 35935 ft | 440 kts | 201° |
| 2026-04-19 08:13 | 14.34935 | -67.96348 | 35936 ft | 440 kts | 201° |
| 2026-04-19 08:13 | 14.29035 | -67.98169 | 35936 ft | 439 kts | 201° |
| 2026-04-19 08:14 | 14.23182 | -67.99988 | 35935 ft | 439 kts | 201° |
| 2026-04-19 08:14 | 14.14476 | -68.02684 | 35932 ft | 439 kts | 201° |
| 2026-04-19 08:15 | 14.08627 | -68.04493 | 35933 ft | 439 kts | 201° |
| 2026-04-19 08:15 | 14.02775 | -68.06302 | 35933 ft | 439 kts | 201° |
| 2026-04-19 08:16 | 13.96948 | -68.08101 | 35927 ft | 432 kts | 201° |
| 2026-04-19 08:16 | 13.94092 | -68.08981 | 35586 ft | 428 kts | 201° |
| 2026-04-19 08:16 | 13.91234 | -68.09863 | 34949 ft | 429 kts | 201° |
| 2026-04-19 08:17 | 13.88413 | -68.10735 | 34336 ft | 428 kts | 201° |
| 2026-04-19 08:17 | 13.85568 | -68.11613 | 33762 ft | 426 kts | 201° |
| 2026-04-19 08:17 | 13.82695 | -68.12500 | 33144 ft | 425 kts | 201° |
| 2026-04-19 08:17 | 13.79907 | -68.13360 | 32569 ft | 422 kts | 201° |
| 2026-04-19 08:18 | 13.77064 | -68.14236 | 32023 ft | 420 kts | 201° |
| 2026-04-19 08:18 | 13.74312 | -68.15084 | 31488 ft | 418 kts | 201° |
| 2026-04-19 08:18 | 13.71531 | -68.15941 | 30941 ft | 416 kts | 201° |
| 2026-04-19 08:18 | 13.68763 | -68.16795 | 30391 ft | 415 kts | 201° |
| 2026-04-19 08:19 | 13.65964 | -68.17658 | 29810 ft | 414 kts | 201° |
| 2026-04-19 08:19 | 13.63248 | -68.18494 | 29204 ft | 412 kts | 201° |
| 2026-04-19 08:19 | 13.60508 | -68.19338 | 28627 ft | 410 kts | 200° |
| 2026-04-19 08:19 | 13.57748 | -68.20188 | 28056 ft | 408 kts | 200° |
| 2026-04-19 08:20 | 13.55033 | -68.21023 | 27524 ft | 406 kts | 200° |
| 2026-04-19 08:20 | 13.52368 | -68.21843 | 26996 ft | 405 kts | 200° |
| 2026-04-19 08:20 | 13.49641 | -68.22682 | 26458 ft | 404 kts | 200° |
| 2026-04-19 08:20 | 13.46953 | -68.23509 | 25930 ft | 403 kts | 200° |
| 2026-04-19 08:21 | 13.44307 | -68.24323 | 25396 ft | 403 kts | 200° |
| 2026-04-19 08:21 | 13.41639 | -68.25144 | 24709 ft | 405 kts | 200° |
| 2026-04-19 08:21 | 13.38914 | -68.25983 | 24242 ft | 404 kts | 200° |
| 2026-04-19 08:21 | 13.36240 | -68.26803 | 23725 ft | 404 kts | 200° |
| 2026-04-19 08:22 | 13.33549 | -68.27629 | 23203 ft | 404 kts | 199° |
| 2026-04-19 08:22 | 13.30823 | -68.28466 | 22628 ft | 403 kts | 199° |
| 2026-04-19 08:22 | 13.28138 | -68.29291 | 22079 ft | 402 kts | 199° |
| 2026-04-19 08:22 | 13.25459 | -68.30114 | 21555 ft | 401 kts | 199° |
| 2026-04-19 08:23 | 13.22788 | -68.30934 | 21026 ft | 400 kts | 199° |
| 2026-04-19 08:23 | 13.20123 | -68.31752 | 20508 ft | 400 kts | 199° |
| 2026-04-19 08:23 | 13.17463 | -68.32568 | 19989 ft | 399 kts | 198° |
| 2026-04-19 08:23 | 13.14794 | -68.33388 | 19543 ft | 397 kts | 198° |
| 2026-04-19 08:24 | 13.12151 | -68.34198 | 19010 ft | 399 kts | 198° |
| 2026-04-19 08:24 | 13.09490 | -68.35015 | 18464 ft | 399 kts | 198° |
| 2026-04-19 08:24 | 13.06823 | -68.35832 | 17897 ft | 400 kts | 198° |
| 2026-04-19 08:24 | 13.04156 | -68.36648 | 17322 ft | 399 kts | 198° |
| 2026-04-19 08:25 | 13.01501 | -68.37461 | 16788 ft | 398 kts | 197° |
| 2026-04-19 08:25 | 12.98860 | -68.38270 | 16255 ft | 397 kts | 197° |
| 2026-04-19 08:25 | 12.96219 | -68.39078 | 15724 ft | 395 kts | 198° |
| 2026-04-19 08:25 | 12.93586 | -68.39884 | 15198 ft | 394 kts | 198° |
| 2026-04-19 08:26 | 12.90973 | -68.40684 | 14643 ft | 384 kts | 197° |
| 2026-04-19 08:26 | 12.88495 | -68.41442 | 14150 ft | 359 kts | 197° |
| 2026-04-19 08:26 | 12.86171 | -68.42152 | 13662 ft | 339 kts | 197° |
| 2026-04-19 08:26 | 12.83972 | -68.42825 | 13190 ft | 322 kts | 197° |
| 2026-04-19 08:27 | 12.81854 | -68.43473 | 12760 ft | 318 kts | 197° |
| 2026-04-19 08:27 | 12.79722 | -68.44126 | 12337 ft | 332 kts | 197° |
| 2026-04-19 08:27 | 12.77423 | -68.44829 | 11895 ft | 351 kts | 197° |
| 2026-04-19 08:27 | 12.75038 | -68.45559 | 11405 ft | 360 kts | 196° |
| 2026-04-19 08:28 | 12.72630 | -68.46295 | 10918 ft | 361 kts | 197° |
| 2026-04-19 08:28 | 12.70229 | -68.47029 | 10536 ft | 357 kts | 196° |
| 2026-04-19 08:28 | 12.67857 | -68.47741 | 10346 ft | 343 kts | 193° |
| 2026-04-19 08:28 | 12.65541 | -68.48115 | 10209 ft | 332 kts | 185° |
| 2026-04-19 08:29 | 12.63252 | -68.48301 | 9907 ft | 328 kts | 183° |
| 2026-04-19 08:29 | 12.60981 | -68.48445 | 9551 ft | 325 kts | 182° |
| 2026-04-19 08:29 | 12.58732 | -68.48587 | 9201 ft | 323 kts | 182° |
| 2026-04-19 08:29 | 12.56501 | -68.48705 | 8849 ft | 320 kts | 180° |
| 2026-04-19 08:30 | 12.54999 | -68.48705 | 8611 ft | 318 kts | 178° |
| 2026-04-19 08:30 | 12.52819 | -68.48663 | 8246 ft | 307 kts | 178° |
| 2026-04-19 08:30 | 12.50735 | -68.48612 | 7888 ft | 293 kts | 177° |
| 2026-04-19 08:30 | 12.48733 | -68.48567 | 7527 ft | 282 kts | 178° |
| 2026-04-19 08:31 | 12.46801 | -68.48527 | 7191 ft | 276 kts | 177° |
| 2026-04-19 08:31 | 12.44921 | -68.48497 | 6842 ft | 265 kts | 177° |
| 2026-04-19 08:31 | 12.43103 | -68.48467 | 6514 ft | 260 kts | 177° |
| 2026-04-19 08:31 | 12.41322 | -68.48441 | 6231 ft | 259 kts | 178° |
| 2026-04-19 08:32 | 12.39500 | -68.48412 | 5931 ft | 258 kts | 177° |
| 2026-04-19 08:32 | 12.37715 | -68.48394 | 5638 ft | 256 kts | 177° |
| 2026-04-19 08:32 | 12.35937 | -68.48387 | 5354 ft | 255 kts | 177° |
| 2026-04-19 08:32 | 12.34166 | -68.48386 | 5068 ft | 254 kts | 177° |
| 2026-04-19 08:33 | 12.32401 | -68.48403 | 4788 ft | 253 kts | 178° |
| 2026-04-19 08:33 | 12.30641 | -68.48410 | 4482 ft | 253 kts | 177° |
| 2026-04-19 08:33 | 12.28890 | -68.48421 | 4159 ft | 247 kts | 178° |
| 2026-04-19 08:33 | 12.27222 | -68.48431 | 3829 ft | 233 kts | 178° |
| 2026-04-19 08:34 | 12.25622 | -68.48444 | 3545 ft | 228 kts | 177° |
| 2026-04-19 08:34 | 12.24039 | -68.48471 | 3268 ft | 227 kts | 178° |
| 2026-04-19 08:34 | 12.22461 | -68.48490 | 2969 ft | 227 kts | 177° |
| 2026-04-19 08:34 | 12.20887 | -68.48513 | 2679 ft | 225 kts | 178° |
| 2026-04-19 08:35 | 12.19350 | -68.48534 | 2569 ft | 215 kts | 177° |
| 2026-04-19 08:35 | 12.17885 | -68.48560 | 2502 ft | 206 kts | 178° |
| 2026-04-19 08:35 | 12.16416 | -68.48577 | 2531 ft | 217 kts | 178° |
| 2026-04-19 08:35 | 12.14891 | -68.48601 | 2524 ft | 221 kts | 178° |
| 2026-04-19 08:36 | 12.13348 | -68.48614 | 2523 ft | 222 kts | 178° |
| 2026-04-19 08:36 | 12.11810 | -68.48631 | 2513 ft | 221 kts | 177° |
| 2026-04-19 08:36 | 12.10281 | -68.48634 | 2499 ft | 218 kts | 170° |
| 2026-04-19 08:36 | 12.08959 | -68.48028 | 2307 ft | 211 kts | 127° |
| 2026-04-19 08:37 | 12.08530 | -68.46659 | 2011 ft | 200 kts | 78° |
| 2026-04-19 08:37 | 12.09337 | -68.45668 | 2412 ft | 192 kts | 25° |
| 2026-04-19 08:37 | 12.10541 | -68.45008 | 2820 ft | 197 kts | 54° |
| 2026-04-19 08:37 | 12.11016 | -68.43747 | 3009 ft | 186 kts | 78° |
| 2026-04-19 08:38 | 12.11304 | -68.42432 | 3394 ft | 193 kts | 76° |
| 2026-04-19 08:38 | 12.11593 | -68.41069 | 3345 ft | 199 kts | 90° |
| 2026-04-19 08:38 | 12.11583 | -68.39693 | 2927 ft | 196 kts | 83° |
| 2026-04-19 08:38 | 12.11826 | -68.38357 | 2521 ft | 186 kts | 78° |
| 2026-04-19 08:39 | 12.12150 | -68.37129 | 2331 ft | 174 kts | 75° |
| 2026-04-19 08:39 | 12.12498 | -68.35931 | 2263 ft | 179 kts | 72° |
| 2026-04-19 08:39 | 12.12923 | -68.34715 | 1748 ft | 181 kts | 73° |
| 2026-04-19 08:39 | 12.13210 | -68.33506 | 1262 ft | 170 kts | 81° |
| 2026-04-19 08:40 | 12.13301 | -68.32370 | 892 ft | 146 kts | 89° |
| 2026-04-19 08:40 | 12.13277 | -68.31323 | 795 ft | 147 kts | 94° |
| 2026-04-19 08:40 | 12.13190 | -68.30272 | 535 ft | 153 kts | 94° |
| 2026-04-19 08:40 | 12.13157 | -68.29194 | 315 ft | 144 kts | 91° |
| 2026-04-19 08:41 | 12.13123 | -68.28191 | 102 ft | 137 kts | 91° |
| 2026-04-19 08:41 | 12.13097 | -68.27245 | 33 ft | 120 kts | 91° |
| 2026-04-19 08:41 | 12.13075 | -68.26638 | 33 ft | 50 kts | 91° |
| 2026-04-19 08:41 | 12.13064 | -68.26266 | 33 ft | 52 kts | 91° |
| 2026-04-19 08:42 | 12.13050 | -68.26001 | 33 ft | 17 kts | 106° |
| 2026-04-19 08:42 | 12.13063 | -68.25979 | 33 ft | 0 kts | 6° |
| 2026-04-19 08:42 | 12.13068 | -68.25986 | 33 ft | 3 kts | 303° |
| 2026-04-19 08:42 | 12.13061 | -68.26090 | 33 ft | 32 kts | 269° |
| 2026-04-19 08:43 | 12.13067 | -68.26338 | 31 ft | 35 kts | 272° |
| 2026-04-19 08:43 | 12.13075 | -68.26587 | 33 ft | 34 kts | 271° |
| 2026-04-19 08:43 | 12.13080 | -68.26810 | 33 ft | 30 kts | 266° |
| 2026-04-19 08:43 | 12.13088 | -68.27023 | 32 ft | 30 kts | 272° |
| 2026-04-19 08:44 | 12.13092 | -68.27236 | 32 ft | 30 kts | 270° |
| 2026-04-19 08:44 | 12.13097 | -68.27381 | 32 ft | 4 kts | 272° |
| 2026-04-19 08:44 | 12.13099 | -68.27416 | 32 ft | 7 kts | 271° |
| 2026-04-19 08:44 | 12.13155 | -68.27495 | 32 ft | 19 kts | 347° |
| 2026-04-19 08:45 | 12.13268 | -68.27497 | 33 ft | 14 kts | 1° |
| 2026-04-19 08:45 | 12.13302 | -68.27496 | 32 ft | 1 kts | 1° |
| 2026-04-19 08:45 | 12.13313 | -68.27496 | 32 ft | 2 kts | 1° |
| 2026-04-19 08:45 | 12.13314 | -68.27496 | 32 ft | 0 kts | 1° |